Imagination — C6FN2 — position and weather

sailwx.info

Track history (hours):
 
Tides and Currents Weather Stations Pressure Air Temp Water Temp Dewpoint Dewpoint Depression Visibility Wind Speed Wind Dir Waves Ship Positions

Imagination

Operator: Carnival Cruise Lines

Last reported at 2019-Sep-17 08:30 UTC. Time now 2019-Sep-17 08:54 UTC.
Position N 32°14' W 117°33'.

Type: Passenger vessel. MMSI: 309933000.

Date/timePositionNaut miles runAvg speedWind from/ knotsBaromVisibWave heightAir tempDewpointWater temp
2019-Sep-17 08:30N 32°14' W 117°33'5 9.6
2019-Sep-17 08:00N 32°18' W 117°37'5 9.1
2019-Sep-17 07:30N 32°21' W 117°40'4 9.0
2019-Sep-17 07:00N 32°25' W 117°43'4 8.9
2019-Sep-17 06:30N 32°29' W 117°45'4 8.9
2019-Sep-17 06:00N 32°34' W 117°46'5 9.1
2019-Sep-17 05:30N 32°38' W 117°48'4 9.0
2019-Sep-17 05:00N 32°42' W 117°49'4 9.0
2019-Sep-17 04:31N 32°47' W 117°50'5 9.0
2019-Sep-17 04:00N 32°51' W 117°51'5 9.1
2019-Sep-17 03:31N 32°56' W 117°52'5 9.1
2019-Sep-17 03:01N 32°59' W 117°55'5 9.0
2019-Sep-17 02:30N 33°03' W 117°59'5 9.1
2019-Sep-17 02:00N 33°06' W 118°02'5 9.1
2019-Sep-17 01:30N 33°10' W 118°06'5 9.1
2019-Sep-17 01:00N 33°13' W 118°09'4 8.8
2019-Sep-17 00:31N 33°16' W 118°13'4 8.4
2019-Sep-17 00:00N 33°19' W 118°16'3 5.2
2019-Sep-16 23:29N 33°21' W 118°19'0 0.0
2019-Sep-16 22:59N 33°21' W 118°19'0 0.1
2019-Sep-16 22:29N 33°21' W 118°19'0 0.1
2019-Sep-16 21:55N 33°21' W 118°19'0 0.0
2019-Sep-16 21:28N 33°21' W 118°19'0 0.0
2019-Sep-16 20:52N 33°21' W 118°19'0 0.0
2019-Sep-16 20:28N 33°21' W 118°19'0 0.0
2019-Sep-16 20:00N 33°21' W 118°19'0 0.0
2019-Sep-16 19:30N 33°21' W 118°19'0 0.0
2019-Sep-16 19:00N 33°21' W 118°19'0 0.0
2019-Sep-16 18:30N 33°21' W 118°19'0 0.1
2019-Sep-16 18:00N 33°21' W 118°19'0 0.0
2019-Sep-16 17:30N 33°21' W 118°19'0 0.1
2019-Sep-16 17:00N 33°21' W 118°19'0 0.1
2019-Sep-16 16:30N 33°21' W 118°19'0 0.0
2019-Sep-16 16:00N 33°21' W 118°19'0 0.1
2019-Sep-16 15:30N 33°21' W 118°19'0 0.0
2019-Sep-16 15:00N 33°21' W 118°19'0 0.0
2019-Sep-16 14:30N 33°21' W 118°19'0 0.2
2019-Sep-16 14:00N 33°21' W 118°19'3 6.6
2019-Sep-16 13:30N 33°19' W 118°16'4 7.4
2019-Sep-16 13:00N 33°15' W 118°16'4 7.4
2019-Sep-16 12:30N 33°11' W 118°16'4 7.4
2019-Sep-16 12:00N 33°07' W 118°15'4 7.3
2019-Sep-16 11:30N 33°04' W 118°14'4 7.3
2019-Sep-16 11:00N 33°02' W 118°10'4 7.4
2019-Sep-16 10:30N 32°59' W 118°07'4 7.2
2019-Sep-16 10:00N 32°57' W 118°04'4 7.3
2019-Sep-16 09:30N 32°54' W 118°01'4 7.4
2019-Sep-16 09:00N 32°52' W 117°57'4 7.1
2019-Sep-16 08:30N 32°54' W 117°54'4 7.4
2019-Sep-16 08:00N 32°58' W 117°55'4 7.7
2019-Sep-16 07:30N 33°02' W 117°56'4 7.5
2019-Sep-16 07:00N 33°05' W 117°58'4 7.6
2019-Sep-16 06:30N 33°08' W 118°00'4 7.5
2019-Sep-16 06:00N 33°12' W 118°02'4 7.5
2019-Sep-16 05:30N 33°15' W 118°04'4 7.6
2019-Sep-16 05:00N 33°19' W 118°06'4 7.8
2019-Sep-16 04:30N 33°22' W 118°07'4 8.0
2019-Sep-16 04:00N 33°26' W 118°09'4 7.9
2019-Sep-16 03:30N 33°30' W 118°11'4 8.4
2019-Sep-16 03:00N 33°34' W 118°12'4 8.4
2019-Sep-16 02:30N 33°38' W 118°12'4 8.4
2019-Sep-16 02:00N 33°42' W 118°11'3 5.9
2019-Sep-16 01:28N 33°45' W 118°11'0 0.0
2019-Sep-16 00:58N 33°45' W 118°11'0 0.0
2019-Sep-16 00:28N 33°45' W 118°11'0 0.0
2019-Sep-16 00:01N 33°45' W 118°11'0 0.0
2019-Sep-15 23:30N 33°45' W 118°11'0 0.0
2019-Sep-15 23:00N 33°45' W 118°11'0 0.0
2019-Sep-15 22:30N 33°45' W 118°11'0 0.0
2019-Sep-15 22:00N 33°45' W 118°11'0 0.0
2019-Sep-15 21:29N 33°45' W 118°11'0 0.0
2019-Sep-15 20:59N 33°45' W 118°11'0 0.0
2019-Sep-15 20:29N 33°45' W 118°11'0 0.0
2019-Sep-15 19:59N 33°45' W 118°11'0 0.0
2019-Sep-15 19:29N 33°45' W 118°11'0 0.0
2019-Sep-15 18:58N 33°45' W 118°11'0 0.0
2019-Sep-15 18:28N 33°45' W 118°11'0 0.0
2019-Sep-15 17:58N 33°45' W 118°11'0 0.0
2019-Sep-15 17:28N 33°45' W 118°11'0 0.0
2019-Sep-15 17:00N 33°45' W 118°11'0 0.0
2019-Sep-15 16:30N 33°45' W 118°11'0 0.0
2019-Sep-15 16:00N 33°45' W 118°11'0 0.0
2019-Sep-15 15:30N 33°45' W 118°11'0 0.0
2019-Sep-15 15:00N 33°45' W 118°11'0 0.0
2019-Sep-15 14:29N 33°45' W 118°11'0 0.0
2019-Sep-15 13:59N 33°45' W 118°11'0 0.0
2019-Sep-15 13:29N 33°45' W 118°11'0 0.0
2019-Sep-15 12:59N 33°45' W 118°11'0 0.6
2019-Sep-15 12:31N 33°45' W 118°11'3 6.2
2019-Sep-15 12:00N 33°42' W 118°11'5 9.2
2019-Sep-15 11:30N 33°37' W 118°10'5 9.4
2019-Sep-15 11:01N 33°33' W 118°08'5 9.5
2019-Sep-15 10:30N 33°28' W 118°06'5 9.5
2019-Sep-15 10:01N 33°24' W 118°04'5 9.6
2019-Sep-15 09:31N 33°19' W 118°02'611.3
2019-Sep-15 09:00N 33°14' W 117°60'611.7
2019-Sep-15 08:30N 33°08' W 117°58'611.6
2019-Sep-15 08:00N 33°03' W 117°55'612.8
2019-Sep-15 07:30N 32°57' W 117°53'816.2
2019-Sep-15 07:00N 32°49' W 117°52'816.1
2019-Sep-15 06:30N 32°41' W 117°50'816.0
2019-Sep-15 06:00N 32°34' W 117°45'816.3
2019-Sep-15 05:30N 32°27' W 117°41'816.3
2019-Sep-15 05:00N 32°20' W 117°35'816.1
2019-Sep-15 04:30N 32°14' W 117°29'816.0
2019-Sep-15 04:00N 32°09' W 117°22'815.9
2019-Sep-15 03:30N 32°04' W 117°14'815.9
2019-Sep-15 03:00N 32°00' W 117°06'815.9
2019-Sep-15 02:30N 31°57' W 116°58'1215.7
2019-Sep-15 01:45N 31°51' W 116°45'3 0.3
2019-Sep-14 13:28N 31°49' W 116°42'4 9.0
2019-Sep-14 13:00N 31°51' W 116°46'4 7.8
2019-Sep-14 12:30N 31°54' W 116°50'4 7.5
2019-Sep-14 12:00N 31°55' W 116°54'4 8.1
2019-Sep-14 11:30N 31°56' W 116°59'4 7.7
2019-Sep-14 11:00N 31°58' W 117°03'4 7.2
2019-Sep-14 10:30N 31°59' W 117°07'4 7.4
2019-Sep-14 10:00N 32°00' W 117°11'3 6.8
2019-Sep-14 09:30N 32°01' W 117°15'3 6.2
2019-Sep-14 09:00N 31°58' W 117°15'3 6.8
2019-Sep-14 08:30N 31°55' W 117°15'3 6.8
2019-Sep-14 08:00N 31°52' W 117°14'4 7.1
2019-Sep-14 07:30N 31°48' W 117°14'4 7.3
2019-Sep-14 07:00N 31°45' W 117°13'4 7.2
2019-Sep-14 06:30N 31°41' W 117°13'3 6.2
2019-Sep-14 06:00N 31°38' W 117°15'4 7.2
2019-Sep-14 05:30N 31°37' W 117°19'4 7.2
2019-Sep-14 05:00N 31°35' W 117°22'4 7.3
2019-Sep-14 04:30N 31°34' W 117°26'4 7.1
2019-Sep-14 04:00N 31°32' W 117°30'4 7.3
2019-Sep-14 03:30N 31°31' W 117°34'4 7.3
2019-Sep-14 03:00N 31°29' W 117°38'4 7.0
2019-Sep-14 02:30N 31°28' W 117°42'3 6.9
2019-Sep-14 02:00N 31°27' W 117°46'4 7.0
2019-Sep-14 01:30N 31°25' W 117°49'3 6.9
2019-Sep-14 01:00N 31°24' W 117°53'4 7.0
2019-Sep-14 00:30N 31°23' W 117°57'4 7.1
2019-Sep-14 00:00N 31°21' W 118°01'3 6.8
2019-Sep-13 23:30N 31°21' W 118°05'3 6.9
2019-Sep-13 23:00N 31°24' W 118°06'4 7.5
2019-Sep-13 22:30N 31°28' W 118°07'4 7.2
2019-Sep-13 22:00N 31°31' W 118°08'4 7.2
2019-Sep-13 21:30N 31°35' W 118°09'4 7.2
2019-Sep-13 21:00N 31°38' W 118°09'4 7.8
2019-Sep-13 20:30N 31°42' W 118°10'3 5.9
2019-Sep-13 20:00N 31°44' W 118°08'4 7.5
2019-Sep-13 19:30N 31°42' W 118°04'4 7.7
2019-Sep-13 19:00N 31°39' W 118°01'4 7.7
2019-Sep-13 18:30N 31°37' W 117°58'3 6.0
2019-Sep-13 18:00N 31°37' W 117°54'4 7.5
2019-Sep-13 17:30N 31°40' W 117°53'4 7.6
2019-Sep-13 17:00N 31°44' W 117°52'5 9.0
2019-Sep-13 16:30N 31°48' W 117°51'4 8.2
2019-Sep-13 16:00N 31°52' W 117°50'4 8.1
2019-Sep-13 15:30N 31°56' W 117°48'4 8.3
2019-Sep-13 15:00N 32°00' W 117°47'4 8.3
2019-Sep-13 14:30N 32°04' W 117°46'4 8.2
2019-Sep-13 14:00N 32°08' W 117°46'4 7.8
2019-Sep-13 13:30N 32°12' W 117°46'4 7.3
2019-Sep-13 13:00N 32°16' W 117°47'5286.6
2019-Sep-13 13:00N 32°18' W 117°42'5 9.7 310 / 91012.510.8 20.016.921.5
2019-Sep-13 12:30N 32°19' W 117°47'4 7.3
2019-Sep-13 12:00N 32°23' W 117°48'156.8
2019-Sep-13 12:00N 32°24' W 117°48'3 5.5 310 / 101012.510.8 20.016.921.4
2019-Sep-13 11:30N 32°27' W 117°48'4 7.2
2019-Sep-13 11:00N 32°30' W 117°48'4 8.1
2019-Sep-13 10:30N 32°34' W 117°48'4 8.6
2019-Sep-13 10:00N 32°39' W 117°49'4 7.2
2019-Sep-13 09:30N 32°42' W 117°50'3 7.0
2019-Sep-13 09:00N 32°45' W 117°52'4 7.5
2019-Sep-13 08:30N 32°49' W 117°53'4 7.7
2019-Sep-13 08:00N 32°52' W 117°55'4 7.7
2019-Sep-13 07:30N 32°56' W 117°56'4 7.7
2019-Sep-13 07:00N 32°60' W 117°58'4 7.6
2019-Sep-13 06:30N 33°03' W 117°59'4 7.8
2019-Sep-13 06:00N 33°07' W 118°01'4 7.6
2019-Sep-13 05:30N 33°11' W 118°02'4 7.8
2019-Sep-13 05:00N 33°14' W 118°04'4 8.9
2019-Sep-13 04:30N 33°18' W 118°06'5 9.7
2019-Sep-13 04:00N 33°23' W 118°08'5 9.6
2019-Sep-13 03:30N 33°27' W 118°10'5 9.7
2019-Sep-13 03:00N 33°32' W 118°12'9 9.2
2019-Sep-13 02:00N 33°41' W 118°12'4 7.4
2019-Sep-13 01:29N 33°45' W 118°11'0 0.0
2019-Sep-13 00:59N 33°45' W 118°11'0 0.0
2019-Sep-13 00:28N 33°45' W 118°11'0 0.0
2019-Sep-12 23:58N 33°45' W 118°11'0 0.0
2019-Sep-12 23:28N 33°45' W 118°11'0 0.0
2019-Sep-12 22:58N 33°45' W 118°11'0 0.0
2019-Sep-12 22:31N 33°45' W 118°11'0 0.0
2019-Sep-12 22:00N 33°45' W 118°11'0 0.0
2019-Sep-12 21:30N 33°45' W 118°11'0 0.0
2019-Sep-12 21:00N 33°45' W 118°11'0 0.0
2019-Sep-12 20:30N 33°45' W 118°11'0 0.0
2019-Sep-12 19:53N 33°45' W 118°11'0 0.0
2019-Sep-12 19:29N 33°45' W 118°11'0 0.0
2019-Sep-12 18:59N 33°45' W 118°11'0 0.0
2019-Sep-12 18:29N 33°45' W 118°11'0 0.0
2019-Sep-12 17:59N 33°45' W 118°11'0 0.0
2019-Sep-12 17:28N 33°45' W 118°11'0 0.0
2019-Sep-12 16:58N 33°45' W 118°11'0 0.0
2019-Sep-12 16:28N 33°45' W 118°11'0 0.0
2019-Sep-12 15:58N 33°45' W 118°11'0 0.0
2019-Sep-12 15:30N 33°45' W 118°11'0 0.0
2019-Sep-12 15:00N 33°45' W 118°11'0 0.0
2019-Sep-12 14:30N 33°45' W 118°11'0 0.0
2019-Sep-12 14:00N 33°45' W 118°11'0 0.0
2019-Sep-12 13:30N 33°45' W 118°11'0 0.0
2019-Sep-12 12:59N 33°45' W 118°11'0 0.0
2019-Sep-12 12:29N 33°45' W 118°11'0 0.0
2019-Sep-12 11:59N 33°45' W 118°11'0 0.0
2019-Sep-12 11:29N 33°45' W 118°11'0 0.0
2019-Sep-12 10:59N 33°45' W 118°11'0 0.0
2019-Sep-12 10:28N 33°45' W 118°11'0 0.0
2019-Sep-12 09:58N 33°45' W 118°11'0 0.0
2019-Sep-12 09:28N 33°45' W 118°11'0 0.0
2019-Sep-12 09:01N 33°45' W 118°11'0 0.8
2019-Sep-12 08:31N 33°45' W 118°11'5 9.5
2019-Sep-12 08:01N 33°40' W 118°10'713.7
2019-Sep-12 07:30N 33°33' W 118°09'714.1
2019-Sep-12 07:00N 33°27' W 118°06'815.2
2019-Sep-12 06:30N 33°20' W 118°02'917.7
2019-Sep-12 06:01N 33°12' W 117°58'917.6
2019-Sep-12 05:31N 33°04' W 117°54'917.4
2019-Sep-12 05:01N 32°57' W 117°47'917.1
2019-Sep-12 04:30N 32°50' W 117°40'816.9
2019-Sep-12 04:01N 32°44' W 117°34'816.2
2019-Sep-12 03:30N 32°38' W 117°27'713.0
2019-Sep-12 03:01N 32°34' W 117°34'714.9
2019-Sep-12 02:30N 32°34' W 117°43'3 6.6
2019-Sep-12 02:00N 32°31' W 117°43'5 9.2
2019-Sep-12 01:30N 32°27' W 117°40'4 8.0
2019-Sep-12 01:00N 32°23' W 117°38'4 7.6
2019-Sep-12 00:30N 32°20' W 117°36'31 6.8
2019-Sep-11 19:58N 31°53' W 117°19'5 8.1
2019-Sep-11 19:19N 31°51' W 117°25'3 8.0
2019-Sep-11 18:56N 31°50' W 117°28'4 8.0
2019-Sep-11 18:26N 31°48' W 117°32'4 8.0
2019-Sep-11 17:59N 31°47' W 117°36'7 8.1
2019-Sep-11 17:10N 31°45' W 117°43'1 8.1
2019-Sep-11 17:00N 31°44' W 117°45'5 7.7
2019-Sep-11 16:20N 31°42' W 117°51'3 7.1
2019-Sep-11 15:56N 31°41' W 117°54'6 7.1
2019-Sep-11 15:08N 31°39' W 117°60'1 7.0
2019-Sep-11 14:59N 31°39' W 118°01'3 7.1
2019-Sep-11 14:30N 31°36' W 118°04'4 7.6
2019-Sep-11 14:00N 31°33' W 118°06'5 6.0
2019-Sep-11 13:14N 31°29' W 118°04'623.5
2019-Sep-11 13:00N 31°24' W 118°00'3 4.7 300 / 141013.510.8 18.013.120.5
2019-Sep-11 12:22N 31°26' W 117°57'1129.6
2019-Sep-11 12:00N 31°18' W 117°48'5 9.0 330 / 131013.010.8 19.014.220.6
2019-Sep-11 11:23N 31°23' W 117°49'13 7.3
2019-Sep-11 09:39N 31°36' W 117°49'2 7.4
2019-Sep-11 09:23N 31°38' W 117°49'4 7.0
2019-Sep-11 08:53N 31°40' W 117°46'4 7.6
2019-Sep-11 08:19N 31°41' W 117°41'3 7.9
2019-Sep-11 07:56N 31°42' W 117°38'38 1.9
2019-Sep-10 12:18N 31°55' W 116°57'6 9.6
2019-Sep-10 11:42N 31°57' W 117°03'2 9.6
2019-Sep-10 11:28N 31°58' W 117°06'6 9.6
2019-Sep-10 10:52N 31°60' W 117°12'5 9.4
2019-Sep-10 10:21N 32°02' W 117°17'4 9.6
2019-Sep-10 09:56N 32°04' W 117°21'4 9.4
2019-Sep-10 09:30N 32°07' W 117°25'5 9.2
2019-Sep-10 09:00N 32°10' W 117°28'5 9.4
2019-Sep-10 08:30N 32°13' W 117°32'5 9.7
2019-Sep-10 08:00N 32°17' W 117°36'510.0
2019-Sep-10 07:30N 32°20' W 117°41'5 9.9
2019-Sep-10 07:00N 32°25' W 117°43'5 9.5
2019-Sep-10 06:30N 32°29' W 117°45'510.1
2019-Sep-10 06:00N 32°34' W 117°47'5 9.4
2019-Sep-10 05:30N 32°39' W 117°48'5 9.2
2019-Sep-10 05:00N 32°43' W 117°49'5 9.1
2019-Sep-10 04:30N 32°48' W 117°49'5 9.2
2019-Sep-10 04:00N 32°52' W 117°50'4 8.7
2019-Sep-10 03:30N 32°56' W 117°52'5 9.1
2019-Sep-10 03:00N 32°60' W 117°56'4 8.8
2019-Sep-10 02:30N 33°03' W 117°59'5 9.0
2019-Sep-10 02:00N 33°06' W 118°03'4 8.9
2019-Sep-10 01:30N 33°10' W 118°06'4 8.9
2019-Sep-10 01:00N 33°13' W 118°09'4 9.0
2019-Sep-10 00:30N 33°17' W 118°13'4 8.5
2019-Sep-10 00:00N 33°20' W 118°16'3 5.0
2019-Sep-09 23:30N 33°21' W 118°19'0 0.0
2019-Sep-09 22:56N 33°21' W 118°19'0 0.0
2019-Sep-09 22:29N 33°21' W 118°19'0 0.0
2019-Sep-09 21:56N 33°21' W 118°19'0 0.0
2019-Sep-09 21:26N 33°21' W 118°19'0 0.0
2019-Sep-09 20:59N 33°21' W 118°19'0 0.0
2019-Sep-09 20:28N 33°21' W 118°19'0 0.1
2019-Sep-09 19:58N 33°21' W 118°19'0 0.0
2019-Sep-09 19:25N 33°21' W 118°19'0 0.1
2019-Sep-09 18:58N 33°21' W 118°19'0 0.0
2019-Sep-09 18:28N 33°21' W 118°19'0 0.0
2019-Sep-09 17:57N 33°21' W 118°19'0 0.0
2019-Sep-09 17:30N 33°21' W 118°19'0 0.0
2019-Sep-09 16:54N 33°21' W 118°19'0 0.0
2019-Sep-09 16:30N 33°21' W 118°19'0 0.0
2019-Sep-09 15:59N 33°21' W 118°19'0 0.0
2019-Sep-09 15:29N 33°21' W 118°19'0 0.0
2019-Sep-09 15:00N 33°21' W 118°19'0 0.0
2019-Sep-09 14:30N 33°21' W 118°19'0 0.1
2019-Sep-09 14:00N 33°21' W 118°19'2 4.4
2019-Sep-09 13:30N 33°19' W 118°17'4 7.5
2019-Sep-09 13:00N 33°16' W 118°16'4 8.2
2019-Sep-09 12:30N 33°12' W 118°16'4 8.2
2019-Sep-09 12:00N 33°07' W 118°15'4 7.8
2019-Sep-09 11:30N 33°04' W 118°14'4 7.6
2019-Sep-09 11:00N 33°01' W 118°10'4 7.4
2019-Sep-09 10:30N 32°59' W 118°07'4 7.3
2019-Sep-09 10:00N 32°57' W 118°03'4 7.4
2019-Sep-09 09:30N 32°54' W 118°00'4 7.0
2019-Sep-09 09:00N 32°53' W 117°56'3 6.7
2019-Sep-09 08:30N 32°55' W 117°53'3 7.0
2019-Sep-09 08:00N 32°59' W 117°54'4 7.2
2019-Sep-09 07:30N 33°02' W 117°56'4 7.1
2019-Sep-09 07:00N 33°05' W 117°58'4 7.2
2019-Sep-09 06:30N 33°08' W 117°60'4 7.4
2019-Sep-09 06:01N 33°11' W 118°02'4 7.3
2019-Sep-09 05:30N 33°15' W 118°04'4 7.6
2019-Sep-09 05:00N 33°18' W 118°06'4 7.6
2019-Sep-09 04:30N 33°22' W 118°07'4 7.6
2019-Sep-09 04:00N 33°25' W 118°09'4 7.8
2019-Sep-09 03:31N 33°29' W 118°10'4 8.5
2019-Sep-09 03:00N 33°33' W 118°12'8 8.1
2019-Sep-09 02:01N 33°41' W 118°12'4 7.4
2019-Sep-09 01:28N 33°45' W 118°11'0 0.0
2019-Sep-09 00:58N 33°45' W 118°11'0 0.0
2019-Sep-09 00:30N 33°45' W 118°11'0 0.0
2019-Sep-09 00:00N 33°45' W 118°11'0 0.0
2019-Sep-08 23:30N 33°45' W 118°11'0 0.0
2019-Sep-08 23:00N 33°45' W 118°11'0 0.0
2019-Sep-08 22:30N 33°45' W 118°11'0 0.0
2019-Sep-08 21:59N 33°45' W 118°11'0 0.0
2019-Sep-08 21:29N 33°45' W 118°11'0 0.0
2019-Sep-08 20:59N 33°45' W 118°11'0 0.0
2019-Sep-08 20:26N 33°45' W 118°11'0 0.0
2019-Sep-08 19:58N 33°45' W 118°11'0 0.0
2019-Sep-08 19:28N 33°45' W 118°11'0 0.0
2019-Sep-08 18:58N 33°45' W 118°11'0 0.0
2019-Sep-08 18:28N 33°45' W 118°11'0 0.0
2019-Sep-08 17:58N 33°45' W 118°11'0 0.0
2019-Sep-08 17:30N 33°45' W 118°11'0 0.0
2019-Sep-08 17:00N 33°45' W 118°11'0 0.0
2019-Sep-08 16:30N 33°45' W 118°11'0 0.0
2019-Sep-08 16:00N 33°45' W 118°11'0 0.0
2019-Sep-08 15:30N 33°45' W 118°11'0 0.0
2019-Sep-08 14:59N 33°45' W 118°11'0 0.0
2019-Sep-08 14:29N 33°45' W 118°11'0 0.0
2019-Sep-08 13:59N 33°45' W 118°11'0 0.0
2019-Sep-08 13:26N 33°45' W 118°11'0 0.0
2019-Sep-08 12:58N 33°45' W 118°11'0 1.0
2019-Sep-08 12:30N 33°45' W 118°11'4 8.5
2019-Sep-08 12:00N 33°40' W 118°10'4 8.1
2019-Sep-08 11:30N 33°36' W 118°10'4 8.6
2019-Sep-08 11:00N 33°32' W 118°08'510.6
2019-Sep-08 10:31N 33°27' W 118°06'4 8.9
2019-Sep-08 10:00N 33°23' W 118°04'611.5
2019-Sep-08 09:30N 33°18' W 118°02'612.9
2019-Sep-08 09:00N 33°12' W 117°59'714.5
2019-Sep-08 08:30N 33°05' W 117°55'815.5
2019-Sep-08 08:01N 32°58' W 117°52'815.7
2019-Sep-08 07:31N 32°51' W 117°49'815.7
2019-Sep-08 07:01N 32°43' W 117°46'815.4
2019-Sep-08 06:31N 32°36' W 117°44'815.1
2019-Sep-08 06:01N 32°28' W 117°41'815.3
2019-Sep-08 05:30N 32°22' W 117°37'714.8
2019-Sep-08 05:00N 32°15' W 117°32'814.9
2019-Sep-08 04:28N 32°11' W 117°24'714.9
2019-Sep-08 03:58N 32°06' W 117°18'715.2
2019-Sep-08 03:30N 32°02' W 117°11'815.4
2019-Sep-08 03:00N 31°59' W 117°03'815.4
2019-Sep-08 02:30N 31°55' W 116°54'815.4
2019-Sep-08 01:58N 31°52' W 116°46'4 0.3
2019-Sep-07 13:36N 31°50' W 116°42'1 7.7
2019-Sep-07 13:30N 31°50' W 116°43'4 8.1
2019-Sep-07 13:00N 31°52' W 116°47'4 7.3
2019-Sep-07 12:30N 31°54' W 116°51'4 7.5
2019-Sep-07 12:00N 31°56' W 116°54'4 7.4
2019-Sep-07 11:30N 31°57' W 116°58'4 7.4
2019-Sep-07 11:00N 31°59' W 117°02'4 7.4
2019-Sep-07 10:30N 32°00' W 117°06'4 7.2
2019-Sep-07 10:00N 32°02' W 117°10'4 7.3
2019-Sep-07 09:30N 32°03' W 117°14'4 7.2
2019-Sep-07 09:00N 32°05' W 117°18'4 7.2
2019-Sep-07 08:30N 32°06' W 117°22'  
Track history (hours):
 
Tides and Currents Weather Stations Pressure Air Temp Water Temp Dewpoint Dewpoint Depression Visibility Wind Speed Wind Dir Waves Ship Positions

Imagination

Operator: Carnival Cruise Lines

Last reported at 2019-Sep-17 08:30 UTC. Time now 2019-Sep-17 08:54 UTC.
Position N 32°14' W 117°33'.

Type: Passenger vessel. MMSI: 309933000.

Date/timePositionNaut miles runAvg speedWind from/ knotsBaromVisibWave heightAir tempDewpointWater temp
2019-Sep-17 08:30N 32°14' W 117°33'5 9.6
2019-Sep-17 08:00N 32°18' W 117°37'5 9.1
2019-Sep-17 07:30N 32°21' W 117°40'4 9.0
2019-Sep-17 07:00N 32°25' W 117°43'4 8.9
2019-Sep-17 06:30N 32°29' W 117°45'4 8.9
2019-Sep-17 06:00N 32°34' W 117°46'5 9.1
2019-Sep-17 05:30N 32°38' W 117°48'4 9.0
2019-Sep-17 05:00N 32°42' W 117°49'4 9.0
2019-Sep-17 04:31N 32°47' W 117°50'5 9.0
2019-Sep-17 04:00N 32°51' W 117°51'5 9.1
2019-Sep-17 03:31N 32°56' W 117°52'5 9.1
2019-Sep-17 03:01N 32°59' W 117°55'5 9.0
2019-Sep-17 02:30N 33°03' W 117°59'5 9.1
2019-Sep-17 02:00N 33°06' W 118°02'5 9.1
2019-Sep-17 01:30N 33°10' W 118°06'5 9.1
2019-Sep-17 01:00N 33°13' W 118°09'4 8.8
2019-Sep-17 00:31N 33°16' W 118°13'4 8.4
2019-Sep-17 00:00N 33°19' W 118°16'3 5.2
2019-Sep-16 23:29N 33°21' W 118°19'0 0.0
2019-Sep-16 22:59N 33°21' W 118°19'0 0.1
2019-Sep-16 22:29N 33°21' W 118°19'0 0.1
2019-Sep-16 21:55N 33°21' W 118°19'0 0.0
2019-Sep-16 21:28N 33°21' W 118°19'0 0.0
2019-Sep-16 20:52N 33°21' W 118°19'0 0.0
2019-Sep-16 20:28N 33°21' W 118°19'0 0.0
2019-Sep-16 20:00N 33°21' W 118°19'0 0.0
2019-Sep-16 19:30N 33°21' W 118°19'0 0.0
2019-Sep-16 19:00N 33°21' W 118°19'0 0.0
2019-Sep-16 18:30N 33°21' W 118°19'0 0.1
2019-Sep-16 18:00N 33°21' W 118°19'0 0.0
2019-Sep-16 17:30N 33°21' W 118°19'0 0.1
2019-Sep-16 17:00N 33°21' W 118°19'0 0.1
2019-Sep-16 16:30N 33°21' W 118°19'0 0.0
2019-Sep-16 16:00N 33°21' W 118°19'0 0.1
2019-Sep-16 15:30N 33°21' W 118°19'0 0.0
2019-Sep-16 15:00N 33°21' W 118°19'0 0.0
2019-Sep-16 14:30N 33°21' W 118°19'0 0.2
2019-Sep-16 14:00N 33°21' W 118°19'3 6.6
2019-Sep-16 13:30N 33°19' W 118°16'4 7.4
2019-Sep-16 13:00N 33°15' W 118°16'4 7.4
2019-Sep-16 12:30N 33°11' W 118°16'4 7.4
2019-Sep-16 12:00N 33°07' W 118°15'4 7.3
2019-Sep-16 11:30N 33°04' W 118°14'4 7.3
2019-Sep-16 11:00N 33°02' W 118°10'4 7.4
2019-Sep-16 10:30N 32°59' W 118°07'4 7.2
2019-Sep-16 10:00N 32°57' W 118°04'4 7.3
2019-Sep-16 09:30N 32°54' W 118°01'4 7.4
2019-Sep-16 09:00N 32°52' W 117°57'4 7.1
2019-Sep-16 08:30N 32°54' W 117°54'4 7.4
2019-Sep-16 08:00N 32°58' W 117°55'4 7.7
2019-Sep-16 07:30N 33°02' W 117°56'4 7.5
2019-Sep-16 07:00N 33°05' W 117°58'4 7.6
2019-Sep-16 06:30N 33°08' W 118°00'4 7.5
2019-Sep-16 06:00N 33°12' W 118°02'4 7.5
2019-Sep-16 05:30N 33°15' W 118°04'4 7.6
2019-Sep-16 05:00N 33°19' W 118°06'4 7.8
2019-Sep-16 04:30N 33°22' W 118°07'4 8.0
2019-Sep-16 04:00N 33°26' W 118°09'4 7.9
2019-Sep-16 03:30N 33°30' W 118°11'4 8.4
2019-Sep-16 03:00N 33°34' W 118°12'4 8.4
2019-Sep-16 02:30N 33°38' W 118°12'4 8.4
2019-Sep-16 02:00N 33°42' W 118°11'3 5.9
2019-Sep-16 01:28N 33°45' W 118°11'0 0.0
2019-Sep-16 00:58N 33°45' W 118°11'0 0.0
2019-Sep-16 00:28N 33°45' W 118°11'0 0.0
2019-Sep-16 00:01N 33°45' W 118°11'0 0.0
2019-Sep-15 23:30N 33°45' W 118°11'0 0.0
2019-Sep-15 23:00N 33°45' W 118°11'0 0.0
2019-Sep-15 22:30N 33°45' W 118°11'0 0.0
2019-Sep-15 22:00N 33°45' W 118°11'0 0.0
2019-Sep-15 21:29N 33°45' W 118°11'0 0.0
2019-Sep-15 20:59N 33°45' W 118°11'0 0.0
2019-Sep-15 20:29N 33°45' W 118°11'0 0.0
2019-Sep-15 19:59N 33°45' W 118°11'0 0.0
2019-Sep-15 19:29N 33°45' W 118°11'0 0.0
2019-Sep-15 18:58N 33°45' W 118°11'0 0.0
2019-Sep-15 18:28N 33°45' W 118°11'0 0.0
2019-Sep-15 17:58N 33°45' W 118°11'0 0.0
2019-Sep-15 17:28N 33°45' W 118°11'0 0.0
2019-Sep-15 17:00N 33°45' W 118°11'0 0.0
2019-Sep-15 16:30N 33°45' W 118°11'0 0.0
2019-Sep-15 16:00N 33°45' W 118°11'0 0.0
2019-Sep-15 15:30N 33°45' W 118°11'0 0.0
2019-Sep-15 15:00N 33°45' W 118°11'0 0.0
2019-Sep-15 14:29N 33°45' W 118°11'0 0.0
2019-Sep-15 13:59N 33°45' W 118°11'0 0.0
2019-Sep-15 13:29N 33°45' W 118°11'0 0.0
2019-Sep-15 12:59N 33°45' W 118°11'0 0.6
2019-Sep-15 12:31N 33°45' W 118°11'3 6.2
2019-Sep-15 12:00N 33°42' W 118°11'5 9.2
2019-Sep-15 11:30N 33°37' W 118°10'5 9.4
2019-Sep-15 11:01N 33°33' W 118°08'5 9.5
2019-Sep-15 10:30N 33°28' W 118°06'5 9.5
2019-Sep-15 10:01N 33°24' W 118°04'5 9.6
2019-Sep-15 09:31N 33°19' W 118°02'611.3
2019-Sep-15 09:00N 33°14' W 117°60'611.7
2019-Sep-15 08:30N 33°08' W 117°58'611.6
2019-Sep-15 08:00N 33°03' W 117°55'612.8
2019-Sep-15 07:30N 32°57' W 117°53'816.2
2019-Sep-15 07:00N 32°49' W 117°52'816.1
2019-Sep-15 06:30N 32°41' W 117°50'816.0
2019-Sep-15 06:00N 32°34' W 117°45'816.3
2019-Sep-15 05:30N 32°27' W 117°41'816.3
2019-Sep-15 05:00N 32°20' W 117°35'816.1
2019-Sep-15 04:30N 32°14' W 117°29'816.0
2019-Sep-15 04:00N 32°09' W 117°22'815.9
2019-Sep-15 03:30N 32°04' W 117°14'815.9
2019-Sep-15 03:00N 32°00' W 117°06'815.9
2019-Sep-15 02:30N 31°57' W 116°58'1215.7
2019-Sep-15 01:45N 31°51' W 116°45'3 0.3
2019-Sep-14 13:28N 31°49' W 116°42'4 9.0
2019-Sep-14 13:00N 31°51' W 116°46'4 7.8
2019-Sep-14 12:30N 31°54' W 116°50'4 7.5
2019-Sep-14 12:00N 31°55' W 116°54'4 8.1
2019-Sep-14 11:30N 31°56' W 116°59'4 7.7
2019-Sep-14 11:00N 31°58' W 117°03'4 7.2
2019-Sep-14 10:30N 31°59' W 117°07'4 7.4
2019-Sep-14 10:00N 32°00' W 117°11'3 6.8
2019-Sep-14 09:30N 32°01' W 117°15'3 6.2
2019-Sep-14 09:00N 31°58' W 117°15'3 6.8
2019-Sep-14 08:30N 31°55' W 117°15'3 6.8
2019-Sep-14 08:00N 31°52' W 117°14'4 7.1
2019-Sep-14 07:30N 31°48' W 117°14'4 7.3
2019-Sep-14 07:00N 31°45' W 117°13'4 7.2
2019-Sep-14 06:30N 31°41' W 117°13'3 6.2
2019-Sep-14 06:00N 31°38' W 117°15'4 7.2
2019-Sep-14 05:30N 31°37' W 117°19'4 7.2
2019-Sep-14 05:00N 31°35' W 117°22'4 7.3
2019-Sep-14 04:30N 31°34' W 117°26'4 7.1
2019-Sep-14 04:00N 31°32' W 117°30'4 7.3
2019-Sep-14 03:30N 31°31' W 117°34'4 7.3
2019-Sep-14 03:00N 31°29' W 117°38'4 7.0
2019-Sep-14 02:30N 31°28' W 117°42'3 6.9
2019-Sep-14 02:00N 31°27' W 117°46'4 7.0
2019-Sep-14 01:30N 31°25' W 117°49'3 6.9
2019-Sep-14 01:00N 31°24' W 117°53'4 7.0
2019-Sep-14 00:30N 31°23' W 117°57'4 7.1
2019-Sep-14 00:00N 31°21' W 118°01'3 6.8
2019-Sep-13 23:30N 31°21' W 118°05'3 6.9
2019-Sep-13 23:00N 31°24' W 118°06'4 7.5
2019-Sep-13 22:30N 31°28' W 118°07'4 7.2
2019-Sep-13 22:00N 31°31' W 118°08'4 7.2
2019-Sep-13 21:30N 31°35' W 118°09'4 7.2
2019-Sep-13 21:00N 31°38' W 118°09'4 7.8
2019-Sep-13 20:30N 31°42' W 118°10'3 5.9
2019-Sep-13 20:00N 31°44' W 118°08'4 7.5
2019-Sep-13 19:30N 31°42' W 118°04'4 7.7
2019-Sep-13 19:00N 31°39' W 118°01'4 7.7
2019-Sep-13 18:30N 31°37' W 117°58'3 6.0
2019-Sep-13 18:00N 31°37' W 117°54'4 7.5
2019-Sep-13 17:30N 31°40' W 117°53'4 7.6
2019-Sep-13 17:00N 31°44' W 117°52'5 9.0
2019-Sep-13 16:30N 31°48' W 117°51'4 8.2
2019-Sep-13 16:00N 31°52' W 117°50'4 8.1
2019-Sep-13 15:30N 31°56' W 117°48'4 8.3
2019-Sep-13 15:00N 32°00' W 117°47'4 8.3
2019-Sep-13 14:30N 32°04' W 117°46'4 8.2
2019-Sep-13 14:00N 32°08' W 117°46'4 7.8
2019-Sep-13 13:30N 32°12' W 117°46'4 7.3
2019-Sep-13 13:00N 32°16' W 117°47'5286.6
2019-Sep-13 13:00N 32°18' W 117°42'5 9.7 310 / 91012.510.8 20.016.921.5
2019-Sep-13 12:30N 32°19' W 117°47'4 7.3
2019-Sep-13 12:00N 32°23' W 117°48'156.8
2019-Sep-13 12:00N 32°24' W 117°48'3 5.5 310 / 101012.510.8 20.016.921.4
2019-Sep-13 11:30N 32°27' W 117°48'4 7.2
2019-Sep-13 11:00N 32°30' W 117°48'4 8.1
2019-Sep-13 10:30N 32°34' W 117°48'4 8.6
2019-Sep-13 10:00N 32°39' W 117°49'4 7.2
2019-Sep-13 09:30N 32°42' W 117°50'3 7.0
2019-Sep-13 09:00N 32°45' W 117°52'4 7.5
2019-Sep-13 08:30N 32°49' W 117°53'4 7.7
2019-Sep-13 08:00N 32°52' W 117°55'4 7.7
2019-Sep-13 07:30N 32°56' W 117°56'4 7.7
2019-Sep-13 07:00N 32°60' W 117°58'4 7.6
2019-Sep-13 06:30N 33°03' W 117°59'4 7.8
2019-Sep-13 06:00N 33°07' W 118°01'4 7.6
2019-Sep-13 05:30N 33°11' W 118°02'4 7.8
2019-Sep-13 05:00N 33°14' W 118°04'4 8.9
2019-Sep-13 04:30N 33°18' W 118°06'5 9.7
2019-Sep-13 04:00N 33°23' W 118°08'5 9.6
2019-Sep-13 03:30N 33°27' W 118°10'5 9.7
2019-Sep-13 03:00N 33°32' W 118°12'9 9.2
2019-Sep-13 02:00N 33°41' W 118°12'4 7.4
2019-Sep-13 01:29N 33°45' W 118°11'0 0.0
2019-Sep-13 00:59N 33°45' W 118°11'0 0.0
2019-Sep-13 00:28N 33°45' W 118°11'0 0.0
2019-Sep-12 23:58N 33°45' W 118°11'0 0.0
2019-Sep-12 23:28N 33°45' W 118°11'0 0.0
2019-Sep-12 22:58N 33°45' W 118°11'0 0.0
2019-Sep-12 22:31N 33°45' W 118°11'0 0.0
2019-Sep-12 22:00N 33°45' W 118°11'0 0.0
2019-Sep-12 21:30N 33°45' W 118°11'0 0.0
2019-Sep-12 21:00N 33°45' W 118°11'0 0.0
2019-Sep-12 20:30N 33°45' W 118°11'0 0.0
2019-Sep-12 19:53N 33°45' W 118°11'0 0.0
2019-Sep-12 19:29N 33°45' W 118°11'0 0.0
2019-Sep-12 18:59N 33°45' W 118°11'0 0.0
2019-Sep-12 18:29N 33°45' W 118°11'0 0.0
2019-Sep-12 17:59N 33°45' W 118°11'0 0.0
2019-Sep-12 17:28N 33°45' W 118°11'0 0.0
2019-Sep-12 16:58N 33°45' W 118°11'0 0.0
2019-Sep-12 16:28N 33°45' W 118°11'0 0.0
2019-Sep-12 15:58N 33°45' W 118°11'0 0.0
2019-Sep-12 15:30N 33°45' W 118°11'0 0.0
2019-Sep-12 15:00N 33°45' W 118°11'0 0.0
2019-Sep-12 14:30N 33°45' W 118°11'0 0.0
2019-Sep-12 14:00N 33°45' W 118°11'0 0.0
2019-Sep-12 13:30N 33°45' W 118°11'0 0.0
2019-Sep-12 12:59N 33°45' W 118°11'0 0.0
2019-Sep-12 12:29N 33°45' W 118°11'0 0.0
2019-Sep-12 11:59N 33°45' W 118°11'0 0.0
2019-Sep-12 11:29N 33°45' W 118°11'0 0.0
2019-Sep-12 10:59N 33°45' W 118°11'0 0.0
2019-Sep-12 10:28N 33°45' W 118°11'0 0.0
2019-Sep-12 09:58N 33°45' W 118°11'0 0.0
2019-Sep-12 09:28N 33°45' W 118°11'0 0.0
2019-Sep-12 09:01N 33°45' W 118°11'0 0.8
2019-Sep-12 08:31N 33°45' W 118°11'5 9.5
2019-Sep-12 08:01N 33°40' W 118°10'713.7
2019-Sep-12 07:30N 33°33' W 118°09'714.1
2019-Sep-12 07:00N 33°27' W 118°06'815.2
2019-Sep-12 06:30N 33°20' W 118°02'917.7
2019-Sep-12 06:01N 33°12' W 117°58'917.6
2019-Sep-12 05:31N 33°04' W 117°54'917.4
2019-Sep-12 05:01N 32°57' W 117°47'917.1
2019-Sep-12 04:30N 32°50' W 117°40'816.9
2019-Sep-12 04:01N 32°44' W 117°34'816.2
2019-Sep-12 03:30N 32°38' W 117°27'713.0
2019-Sep-12 03:01N 32°34' W 117°34'714.9
2019-Sep-12 02:30N 32°34' W 117°43'3 6.6
2019-Sep-12 02:00N 32°31' W 117°43'5 9.2
2019-Sep-12 01:30N 32°27' W 117°40'4 8.0
2019-Sep-12 01:00N 32°23' W 117°38'4 7.6
2019-Sep-12 00:30N 32°20' W 117°36'31 6.8
2019-Sep-11 19:58N 31°53' W 117°19'5 8.1
2019-Sep-11 19:19N 31°51' W 117°25'3 8.0
2019-Sep-11 18:56N 31°50' W 117°28'4 8.0
2019-Sep-11 18:26N 31°48' W 117°32'4 8.0
2019-Sep-11 17:59N 31°47' W 117°36'7 8.1
2019-Sep-11 17:10N 31°45' W 117°43'1 8.1
2019-Sep-11 17:00N 31°44' W 117°45'5 7.7
2019-Sep-11 16:20N 31°42' W 117°51'3 7.1
2019-Sep-11 15:56N 31°41' W 117°54'6 7.1
2019-Sep-11 15:08N 31°39' W 117°60'1 7.0
2019-Sep-11 14:59N 31°39' W 118°01'3 7.1
2019-Sep-11 14:30N 31°36' W 118°04'4 7.6
2019-Sep-11 14:00N 31°33' W 118°06'5 6.0
2019-Sep-11 13:14N 31°29' W 118°04'623.5
2019-Sep-11 13:00N 31°24' W 118°00'3 4.7 300 / 141013.510.8 18.013.120.5
2019-Sep-11 12:22N 31°26' W 117°57'1129.6
2019-Sep-11 12:00N 31°18' W 117°48'5 9.0 330 / 131013.010.8 19.014.220.6
2019-Sep-11 11:23N 31°23' W 117°49'13 7.3
2019-Sep-11 09:39N 31°36' W 117°49'2 7.4
2019-Sep-11 09:23N 31°38' W 117°49'4 7.0
2019-Sep-11 08:53N 31°40' W 117°46'4 7.6
2019-Sep-11 08:19N 31°41' W 117°41'3 7.9
2019-Sep-11 07:56N 31°42' W 117°38'38 1.9
2019-Sep-10 12:18N 31°55' W 116°57'6 9.6
2019-Sep-10 11:42N 31°57' W 117°03'2 9.6
2019-Sep-10 11:28N 31°58' W 117°06'6 9.6
2019-Sep-10 10:52N 31°60' W 117°12'5 9.4
2019-Sep-10 10:21N 32°02' W 117°17'4 9.6
2019-Sep-10 09:56N 32°04' W 117°21'4 9.4
2019-Sep-10 09:30N 32°07' W 117°25'5 9.2
2019-Sep-10 09:00N 32°10' W 117°28'5 9.4
2019-Sep-10 08:30N 32°13' W 117°32'5 9.7
2019-Sep-10 08:00N 32°17' W 117°36'510.0
2019-Sep-10 07:30N 32°20' W 117°41'5 9.9
2019-Sep-10 07:00N 32°25' W 117°43'5 9.5
2019-Sep-10 06:30N 32°29' W 117°45'510.1
2019-Sep-10 06:00N 32°34' W 117°47'5 9.4
2019-Sep-10 05:30N 32°39' W 117°48'5 9.2
2019-Sep-10 05:00N 32°43' W 117°49'5 9.1
2019-Sep-10 04:30N 32°48' W 117°49'5 9.2
2019-Sep-10 04:00N 32°52' W 117°50'4 8.7
2019-Sep-10 03:30N 32°56' W 117°52'5 9.1
2019-Sep-10 03:00N 32°60' W 117°56'4 8.8
2019-Sep-10 02:30N 33°03' W 117°59'5 9.0
2019-Sep-10 02:00N 33°06' W 118°03'4 8.9
2019-Sep-10 01:30N 33°10' W 118°06'4 8.9
2019-Sep-10 01:00N 33°13' W 118°09'4 9.0
2019-Sep-10 00:30N 33°17' W 118°13'4 8.5
2019-Sep-10 00:00N 33°20' W 118°16'3 5.0
2019-Sep-09 23:30N 33°21' W 118°19'0 0.0
2019-Sep-09 22:56N 33°21' W 118°19'0 0.0
2019-Sep-09 22:29N 33°21' W 118°19'0 0.0
2019-Sep-09 21:56N 33°21' W 118°19'0 0.0
2019-Sep-09 21:26N 33°21' W 118°19'0 0.0
2019-Sep-09 20:59N 33°21' W 118°19'0 0.0
2019-Sep-09 20:28N 33°21' W 118°19'0 0.1
2019-Sep-09 19:58N 33°21' W 118°19'0 0.0
2019-Sep-09 19:25N 33°21' W 118°19'0 0.1
2019-Sep-09 18:58N 33°21' W 118°19'0 0.0
2019-Sep-09 18:28N 33°21' W 118°19'0 0.0
2019-Sep-09 17:57N 33°21' W 118°19'0 0.0
2019-Sep-09 17:30N 33°21' W 118°19'0 0.0
2019-Sep-09 16:54N 33°21' W 118°19'0 0.0
2019-Sep-09 16:30N 33°21' W 118°19'0 0.0
2019-Sep-09 15:59N 33°21' W 118°19'0 0.0
2019-Sep-09 15:29N 33°21' W 118°19'0 0.0
2019-Sep-09 15:00N 33°21' W 118°19'0 0.0
2019-Sep-09 14:30N 33°21' W 118°19'0 0.1
2019-Sep-09 14:00N 33°21' W 118°19'2 4.4
2019-Sep-09 13:30N 33°19' W 118°17'4 7.5
2019-Sep-09 13:00N 33°16' W 118°16'4 8.2
2019-Sep-09 12:30N 33°12' W 118°16'4 8.2
2019-Sep-09 12:00N 33°07' W 118°15'4 7.8
2019-Sep-09 11:30N 33°04' W 118°14'4 7.6
2019-Sep-09 11:00N 33°01' W 118°10'4 7.4
2019-Sep-09 10:30N 32°59' W 118°07'4 7.3
2019-Sep-09 10:00N 32°57' W 118°03'4 7.4
2019-Sep-09 09:30N 32°54' W 118°00'4 7.0
2019-Sep-09 09:00N 32°53' W 117°56'3 6.7
2019-Sep-09 08:30N 32°55' W 117°53'3 7.0
2019-Sep-09 08:00N 32°59' W 117°54'4 7.2
2019-Sep-09 07:30N 33°02' W 117°56'4 7.1
2019-Sep-09 07:00N 33°05' W 117°58'4 7.2
2019-Sep-09 06:30N 33°08' W 117°60'4 7.4
2019-Sep-09 06:01N 33°11' W 118°02'4 7.3
2019-Sep-09 05:30N 33°15' W 118°04'4 7.6
2019-Sep-09 05:00N 33°18' W 118°06'4 7.6
2019-Sep-09 04:30N 33°22' W 118°07'4 7.6
2019-Sep-09 04:00N 33°25' W 118°09'4 7.8
2019-Sep-09 03:31N 33°29' W 118°10'4 8.5
2019-Sep-09 03:00N 33°33' W 118°12'8 8.1
2019-Sep-09 02:01N 33°41' W 118°12'4 7.4
2019-Sep-09 01:28N 33°45' W 118°11'0 0.0
2019-Sep-09 00:58N 33°45' W 118°11'0 0.0
2019-Sep-09 00:30N 33°45' W 118°11'0 0.0
2019-Sep-09 00:00N 33°45' W 118°11'0 0.0
2019-Sep-08 23:30N 33°45' W 118°11'0 0.0
2019-Sep-08 23:00N 33°45' W 118°11'0 0.0
2019-Sep-08 22:30N 33°45' W 118°11'0 0.0
2019-Sep-08 21:59N 33°45' W 118°11'0 0.0
2019-Sep-08 21:29N 33°45' W 118°11'0 0.0
2019-Sep-08 20:59N 33°45' W 118°11'0 0.0
2019-Sep-08 20:26N 33°45' W 118°11'0 0.0
2019-Sep-08 19:58N 33°45' W 118°11'0 0.0
2019-Sep-08 19:28N 33°45' W 118°11'0 0.0
2019-Sep-08 18:58N 33°45' W 118°11'0 0.0
2019-Sep-08 18:28N 33°45' W 118°11'0 0.0
2019-Sep-08 17:58N 33°45' W 118°11'0 0.0
2019-Sep-08 17:30N 33°45' W 118°11'0 0.0
2019-Sep-08 17:00N 33°45' W 118°11'0 0.0
2019-Sep-08 16:30N 33°45' W 118°11'0 0.0
2019-Sep-08 16:00N 33°45' W 118°11'0 0.0
2019-Sep-08 15:30N 33°45' W 118°11'0 0.0
2019-Sep-08 14:59N 33°45' W 118°11'0 0.0
2019-Sep-08 14:29N 33°45' W 118°11'0 0.0
2019-Sep-08 13:59N 33°45' W 118°11'0 0.0
2019-Sep-08 13:26N 33°45' W 118°11'0 0.0
2019-Sep-08 12:58N 33°45' W 118°11'0 1.0
2019-Sep-08 12:30N 33°45' W 118°11'4 8.5
2019-Sep-08 12:00N 33°40' W 118°10'4 8.1
2019-Sep-08 11:30N 33°36' W 118°10'4 8.6
2019-Sep-08 11:00N 33°32' W 118°08'510.6
2019-Sep-08 10:31N 33°27' W 118°06'4 8.9
2019-Sep-08 10:00N 33°23' W 118°04'611.5
2019-Sep-08 09:30N 33°18' W 118°02'612.9
2019-Sep-08 09:00N 33°12' W 117°59'714.5
2019-Sep-08 08:30N 33°05' W 117°55'815.5
2019-Sep-08 08:01N 32°58' W 117°52'815.7
2019-Sep-08 07:31N 32°51' W 117°49'815.7
2019-Sep-08 07:01N 32°43' W 117°46'815.4
2019-Sep-08 06:31N 32°36' W 117°44'815.1
2019-Sep-08 06:01N 32°28' W 117°41'815.3
2019-Sep-08 05:30N 32°22' W 117°37'714.8
2019-Sep-08 05:00N 32°15' W 117°32'814.9
2019-Sep-08 04:28N 32°11' W 117°24'714.9
2019-Sep-08 03:58N 32°06' W 117°18'715.2
2019-Sep-08 03:30N 32°02' W 117°11'815.4
2019-Sep-08 03:00N 31°59' W 117°03'815.4
2019-Sep-08 02:30N 31°55' W 116°54'815.4
2019-Sep-08 01:58N 31°52' W 116°46'4 0.3
2019-Sep-07 13:36N 31°50' W 116°42'1 7.7
2019-Sep-07 13:30N 31°50' W 116°43'4 8.1
2019-Sep-07 13:00N 31°52' W 116°47'4 7.3
2019-Sep-07 12:30N 31°54' W 116°51'4 7.5
2019-Sep-07 12:00N 31°56' W 116°54'4 7.4
2019-Sep-07 11:30N 31°57' W 116°58'4 7.4
2019-Sep-07 11:00N 31°59' W 117°02'4 7.4
2019-Sep-07 10:30N 32°00' W 117°06'4 7.2
2019-Sep-07 10:00N 32°02' W 117°10'4 7.3
2019-Sep-07 09:30N 32°03' W 117°14'4 7.2
2019-Sep-07 09:00N 32°05' W 117°18'4 7.2
2019-Sep-07 08:30N 32°06' W 117°22'  

Dump ship's entire track history